sensor_id;sensor_type;location;lat;lon;timestamp;P1;durP1;ratioP1;P2;durP2;ratioP2
18520;SDS011;9390;51.244;6.982;2022-12-10T00:01:05;88.35;;;30.75;;
18520;SDS011;9390;51.244;6.982;2022-12-10T00:03:36;100.93;;;32.72;;
18520;SDS011;9390;51.244;6.982;2022-12-10T00:06:10;105.90;;;32.95;;
18520;SDS011;9390;51.244;6.982;2022-12-10T00:08:42;102.70;;;31.90;;
18520;SDS011;9390;51.244;6.982;2022-12-10T00:11:16;95.72;;;31.60;;
18520;SDS011;9390;51.244;6.982;2022-12-10T00:13:48;93.28;;;32.45;;
18520;SDS011;9390;51.244;6.982;2022-12-10T00:16:21;98.50;;;31.95;;
18520;SDS011;9390;51.244;6.982;2022-12-10T00:18:54;106.93;;;32.42;;
18520;SDS011;9390;51.244;6.982;2022-12-10T00:21:26;110.93;;;32.88;;
18520;SDS011;9390;51.244;6.982;2022-12-10T00:23:59;110.47;;;32.60;;
18520;SDS011;9390;51.244;6.982;2022-12-10T00:26:33;100.97;;;32.55;;
18520;SDS011;9390;51.244;6.982;2022-12-10T00:29:07;99.90;;;33.70;;
18520;SDS011;9390;51.244;6.982;2022-12-10T00:31:40;104.03;;;31.98;;
18520;SDS011;9390;51.244;6.982;2022-12-10T00:34:12;103.57;;;32.92;;
18520;SDS011;9390;51.244;6.982;2022-12-10T00:36:44;101.18;;;33.42;;
18520;SDS011;9390;51.244;6.982;2022-12-10T00:39:17;92.35;;;32.50;;
18520;SDS011;9390;51.244;6.982;2022-12-10T00:41:50;112.72;;;33.13;;
18520;SDS011;9390;51.244;6.982;2022-12-10T00:44:21;107.40;;;33.60;;
18520;SDS011;9390;51.244;6.982;2022-12-10T00:46:53;104.30;;;34.00;;
18520;SDS011;9390;51.244;6.982;2022-12-10T00:49:24;109.57;;;33.22;;
18520;SDS011;9390;51.244;6.982;2022-12-10T00:51:55;104.93;;;32.70;;
18520;SDS011;9390;51.244;6.982;2022-12-10T00:54:27;102.22;;;33.05;;
18520;SDS011;9390;51.244;6.982;2022-12-10T00:56:59;92.18;;;33.97;;
18520;SDS011;9390;51.244;6.982;2022-12-10T00:59:31;101.70;;;32.80;;
18520;SDS011;9390;51.244;6.982;2022-12-10T01:02:02;105.05;;;32.80;;
18520;SDS011;9390;51.244;6.982;2022-12-10T01:04:33;105.82;;;32.60;;
18520;SDS011;9390;51.244;6.982;2022-12-10T01:07:05;107.20;;;33.05;;
18520;SDS011;9390;51.244;6.982;2022-12-10T01:09:36;104.78;;;33.90;;
18520;SDS011;9390;51.244;6.982;2022-12-10T01:12:09;96.53;;;33.20;;
18520;SDS011;9390;51.244;6.982;2022-12-10T01:14:40;110.47;;;32.85;;
18520;SDS011;9390;51.244;6.982;2022-12-10T01:17:12;115.90;;;33.30;;
18520;SDS011;9390;51.244;6.982;2022-12-10T01:19:43;110.30;;;32.88;;
18520;SDS011;9390;51.244;6.982;2022-12-10T01:22:14;99.45;;;31.88;;
18520;SDS011;9390;51.244;6.982;2022-12-10T01:24:46;106.35;;;32.47;;
18520;SDS011;9390;51.244;6.982;2022-12-10T01:27:20;110.05;;;35.00;;
18520;SDS011;9390;51.244;6.982;2022-12-10T01:29:51;121.88;;;37.45;;
18520;SDS011;9390;51.244;6.982;2022-12-10T01:32:23;126.38;;;40.70;;
18520;SDS011;9390;51.244;6.982;2022-12-10T01:34:54;120.40;;;39.63;;
18520;SDS011;9390;51.244;6.982;2022-12-10T01:37:26;130.80;;;40.47;;
18520;SDS011;9390;51.244;6.982;2022-12-10T01:39:57;126.55;;;41.80;;
18520;SDS011;9390;51.244;6.982;2022-12-10T01:42:30;129.32;;;38.85;;
18520;SDS011;9390;51.244;6.982;2022-12-10T01:45:06;134.75;;;38.00;;
18520;SDS011;9390;51.244;6.982;2022-12-10T01:47:40;126.20;;;37.53;;
18520;SDS011;9390;51.244;6.982;2022-12-10T01:50:11;125.32;;;35.72;;
18520;SDS011;9390;51.244;6.982;2022-12-10T01:52:43;113.60;;;36.17;;
18520;SDS011;9390;51.244;6.982;2022-12-10T01:58:17;114.90;;;34.15;;
18520;SDS011;9390;51.244;6.982;2022-12-10T02:00:51;123.47;;;34.50;;
18520;SDS011;9390;51.244;6.982;2022-12-10T02:03:30;113.68;;;36.83;;
18520;SDS011;9390;51.244;6.982;2022-12-10T02:06:10;126.00;;;39.30;;
18520;SDS011;9390;51.244;6.982;2022-12-10T02:08:50;105.00;;;34.40;;
18520;SDS011;9390;51.244;6.982;2022-12-10T02:11:28;115.10;;;37.63;;
18520;SDS011;9390;51.244;6.982;2022-12-10T02:14:03;123.85;;;36.70;;
18520;SDS011;9390;51.244;6.982;2022-12-10T02:16:37;109.15;;;36.33;;
18520;SDS011;9390;51.244;6.982;2022-12-10T02:19:13;130.27;;;37.25;;
18520;SDS011;9390;51.244;6.982;2022-12-10T02:21:49;116.60;;;36.22;;
18520;SDS011;9390;51.244;6.982;2022-12-10T02:24:23;124.60;;;36.97;;
18520;SDS011;9390;51.244;6.982;2022-12-10T02:26:58;118.72;;;35.47;;
18520;SDS011;9390;51.244;6.982;2022-12-10T02:29:34;119.68;;;34.03;;
18520;SDS011;9390;51.244;6.982;2022-12-10T02:32:07;127.93;;;37.08;;
18520;SDS011;9390;51.244;6.982;2022-12-10T02:34:41;118.40;;;35.55;;
18520;SDS011;9390;51.244;6.982;2022-12-10T02:37:14;107.47;;;33.55;;
18520;SDS011;9390;51.244;6.982;2022-12-10T02:39:49;116.63;;;33.33;;
18520;SDS011;9390;51.244;6.982;2022-12-10T02:44:54;118.35;;;33.08;;
18520;SDS011;9390;51.244;6.982;2022-12-10T02:47:27;109.10;;;34.78;;
18520;SDS011;9390;51.244;6.982;2022-12-10T02:49:58;115.13;;;33.47;;
18520;SDS011;9390;51.244;6.982;2022-12-10T02:52:30;112.57;;;34.63;;
18520;SDS011;9390;51.244;6.982;2022-12-10T02:55:01;120.97;;;35.13;;
18520;SDS011;9390;51.244;6.982;2022-12-10T02:57:35;113.22;;;34.28;;
18520;SDS011;9390;51.244;6.982;2022-12-10T03:00:10;114.80;;;34.45;;
18520;SDS011;9390;51.244;6.982;2022-12-10T03:02:50;116.97;;;34.42;;
18520;SDS011;9390;51.244;6.982;2022-12-10T03:05:29;111.93;;;34.65;;
18520;SDS011;9390;51.244;6.982;2022-12-10T03:08:13;104.97;;;34.25;;
18520;SDS011;9390;51.244;6.982;2022-12-10T03:10:51;107.93;;;33.80;;
18520;SDS011;9390;51.244;6.982;2022-12-10T03:13:29;113.35;;;32.88;;
18520;SDS011;9390;51.244;6.982;2022-12-10T03:16:02;120.55;;;35.47;;
18520;SDS011;9390;51.244;6.982;2022-12-10T03:18:35;110.60;;;33.88;;
18520;SDS011;9390;51.244;6.982;2022-12-10T03:21:07;115.07;;;33.30;;
18520;SDS011;9390;51.244;6.982;2022-12-10T03:23:40;105.30;;;32.90;;
18520;SDS011;9390;51.244;6.982;2022-12-10T03:26:14;113.97;;;34.40;;
18520;SDS011;9390;51.244;6.982;2022-12-10T03:28:46;110.47;;;34.78;;
18520;SDS011;9390;51.244;6.982;2022-12-10T03:31:22;119.47;;;35.25;;
18520;SDS011;9390;51.244;6.982;2022-12-10T03:36:25;114.25;;;34.58;;
18520;SDS011;9390;51.244;6.982;2022-12-10T03:38:57;114.95;;;35.08;;
18520;SDS011;9390;51.244;6.982;2022-12-10T03:41:29;112.15;;;35.13;;
18520;SDS011;9390;51.244;6.982;2022-12-10T03:44:00;109.97;;;33.50;;
18520;SDS011;9390;51.244;6.982;2022-12-10T03:46:33;119.90;;;35.80;;
18520;SDS011;9390;51.244;6.982;2022-12-10T03:49:05;108.45;;;34.33;;
18520;SDS011;9390;51.244;6.982;2022-12-10T03:51:36;112.70;;;33.83;;
18520;SDS011;9390;51.244;6.982;2022-12-10T03:54:07;108.65;;;34.00;;
18520;SDS011;9390;51.244;6.982;2022-12-10T03:56:39;101.72;;;32.67;;
18520;SDS011;9390;51.244;6.982;2022-12-10T03:59:10;103.63;;;32.50;;
18520;SDS011;9390;51.244;6.982;2022-12-10T04:01:43;99.13;;;33.35;;
18520;SDS011;9390;51.244;6.982;2022-12-10T04:06:46;99.22;;;31.88;;
18520;SDS011;9390;51.244;6.982;2022-12-10T04:09:17;96.15;;;32.28;;
18520;SDS011;9390;51.244;6.982;2022-12-10T04:14:22;113.72;;;33.97;;
18520;SDS011;9390;51.244;6.982;2022-12-10T04:17:12;107.55;;;32.85;;
18520;SDS011;9390;51.244;6.982;2022-12-10T04:19:44;98.90;;;34.00;;
18520;SDS011;9390;51.244;6.982;2022-12-10T04:22:16;110.60;;;32.47;;
18520;SDS011;9390;51.244;6.982;2022-12-10T04:25:05;98.13;;;32.65;;
18520;SDS011;9390;51.244;6.982;2022-12-10T04:27:55;96.38;;;31.20;;
18520;SDS011;9390;51.244;6.982;2022-12-10T04:30:26;99.82;;;32.95;;
18520;SDS011;9390;51.244;6.982;2022-12-10T04:32:59;95.90;;;31.88;;
18520;SDS011;9390;51.244;6.982;2022-12-10T04:35:31;105.20;;;31.73;;
18520;SDS011;9390;51.244;6.982;2022-12-10T04:38:02;99.82;;;35.47;;
18520;SDS011;9390;51.244;6.982;2022-12-10T04:40:34;104.55;;;31.20;;
18520;SDS011;9390;51.244;6.982;2022-12-10T04:43:05;101.80;;;33.05;;
18520;SDS011;9390;51.244;6.982;2022-12-10T04:45:37;97.38;;;31.95;;
18520;SDS011;9390;51.244;6.982;2022-12-10T04:48:10;105.10;;;33.42;;
18520;SDS011;9390;51.244;6.982;2022-12-10T04:50:42;88.38;;;31.73;;
18520;SDS011;9390;51.244;6.982;2022-12-10T04:53:13;103.78;;;33.47;;
18520;SDS011;9390;51.244;6.982;2022-12-10T04:55:45;94.13;;;33.10;;
18520;SDS011;9390;51.244;6.982;2022-12-10T04:58:16;89.80;;;30.73;;
18520;SDS011;9390;51.244;6.982;2022-12-10T05:00:48;93.28;;;31.98;;
18520;SDS011;9390;51.244;6.982;2022-12-10T05:03:20;87.82;;;30.92;;
18520;SDS011;9390;51.244;6.982;2022-12-10T05:05:53;94.25;;;31.83;;
18520;SDS011;9390;51.244;6.982;2022-12-10T05:08:24;94.13;;;31.40;;
18520;SDS011;9390;51.244;6.982;2022-12-10T05:10:59;94.13;;;30.75;;
18520;SDS011;9390;51.244;6.982;2022-12-10T05:13:32;95.97;;;32.38;;
18520;SDS011;9390;51.244;6.982;2022-12-10T05:16:05;85.80;;;31.48;;
18520;SDS011;9390;51.244;6.982;2022-12-10T05:18:39;95.85;;;30.90;;
18520;SDS011;9390;51.244;6.982;2022-12-10T05:23:43;94.32;;;30.60;;
18520;SDS011;9390;51.244;6.982;2022-12-10T05:26:16;89.22;;;30.85;;
18520;SDS011;9390;51.244;6.982;2022-12-10T05:31:21;87.25;;;29.83;;
18520;SDS011;9390;51.244;6.982;2022-12-10T05:33:55;85.63;;;30.88;;
18520;SDS011;9390;51.244;6.982;2022-12-10T05:36:28;85.45;;;28.45;;
18520;SDS011;9390;51.244;6.982;2022-12-10T05:39:01;100.82;;;34.30;;
18520;SDS011;9390;51.244;6.982;2022-12-10T05:41:34;97.90;;;31.85;;
18520;SDS011;9390;51.244;6.982;2022-12-10T05:44:06;77.70;;;29.27;;
18520;SDS011;9390;51.244;6.982;2022-12-10T05:46:38;84.00;;;29.80;;
18520;SDS011;9390;51.244;6.982;2022-12-10T05:49:11;95.15;;;30.20;;
18520;SDS011;9390;51.244;6.982;2022-12-10T05:51:43;90.53;;;30.52;;
18520;SDS011;9390;51.244;6.982;2022-12-10T05:54:14;79.63;;;28.40;;
18520;SDS011;9390;51.244;6.982;2022-12-10T05:56:46;94.40;;;32.58;;
18520;SDS011;9390;51.244;6.982;2022-12-10T05:59:17;92.53;;;31.00;;
18520;SDS011;9390;51.244;6.982;2022-12-10T06:01:49;83.05;;;29.20;;
18520;SDS011;9390;51.244;6.982;2022-12-10T06:04:22;92.65;;;29.55;;
18520;SDS011;9390;51.244;6.982;2022-12-10T06:06:53;85.32;;;30.02;;
18520;SDS011;9390;51.244;6.982;2022-12-10T06:09:25;99.88;;;32.13;;
18520;SDS011;9390;51.244;6.982;2022-12-10T06:11:56;91.72;;;30.90;;
18520;SDS011;9390;51.244;6.982;2022-12-10T06:14:28;94.32;;;31.48;;
18520;SDS011;9390;51.244;6.982;2022-12-10T06:16:59;122.75;;;35.75;;
18520;SDS011;9390;51.244;6.982;2022-12-10T06:19:33;112.72;;;34.80;;
18520;SDS011;9390;51.244;6.982;2022-12-10T06:22:05;114.88;;;32.60;;
18520;SDS011;9390;51.244;6.982;2022-12-10T06:24:36;103.75;;;34.17;;
18520;SDS011;9390;51.244;6.982;2022-12-10T06:27:08;135.07;;;37.35;;
18520;SDS011;9390;51.244;6.982;2022-12-10T06:29:39;183.27;;;37.15;;
18520;SDS011;9390;51.244;6.982;2022-12-10T06:32:11;154.52;;;41.05;;
18520;SDS011;9390;51.244;6.982;2022-12-10T06:34:44;136.30;;;38.17;;
18520;SDS011;9390;51.244;6.982;2022-12-10T06:37:16;179.63;;;41.83;;
18520;SDS011;9390;51.244;6.982;2022-12-10T06:39:49;171.75;;;40.80;;
18520;SDS011;9390;51.244;6.982;2022-12-10T06:42:21;161.50;;;40.10;;
18520;SDS011;9390;51.244;6.982;2022-12-10T06:44:53;220.23;;;43.38;;
18520;SDS011;9390;51.244;6.982;2022-12-10T06:47:24;188.05;;;39.53;;
18520;SDS011;9390;51.244;6.982;2022-12-10T06:49:57;164.50;;;41.28;;
18520;SDS011;9390;51.244;6.982;2022-12-10T06:52:29;177.02;;;39.78;;
18520;SDS011;9390;51.244;6.982;2022-12-10T06:55:00;152.55;;;39.30;;
18520;SDS011;9390;51.244;6.982;2022-12-10T06:57:32;155.23;;;37.83;;
18520;SDS011;9390;51.244;6.982;2022-12-10T07:00:04;133.57;;;37.22;;
18520;SDS011;9390;51.244;6.982;2022-12-10T07:02:36;126.93;;;37.90;;
18520;SDS011;9390;51.244;6.982;2022-12-10T07:05:09;109.70;;;34.15;;
18520;SDS011;9390;51.244;6.982;2022-12-10T07:07:41;113.72;;;35.65;;
18520;SDS011;9390;51.244;6.982;2022-12-10T07:10:13;117.80;;;33.28;;
18520;SDS011;9390;51.244;6.982;2022-12-10T07:12:44;134.23;;;36.80;;
18520;SDS011;9390;51.244;6.982;2022-12-10T07:15:16;124.53;;;34.85;;
18520;SDS011;9390;51.244;6.982;2022-12-10T07:17:48;113.43;;;33.53;;
18520;SDS011;9390;51.244;6.982;2022-12-10T07:20:23;113.70;;;36.15;;
18520;SDS011;9390;51.244;6.982;2022-12-10T07:22:54;138.05;;;37.55;;
18520;SDS011;9390;51.244;6.982;2022-12-10T07:25:26;130.50;;;36.75;;
18520;SDS011;9390;51.244;6.982;2022-12-10T07:27:58;116.20;;;34.55;;
18520;SDS011;9390;51.244;6.982;2022-12-10T07:30:29;121.53;;;35.83;;
18520;SDS011;9390;51.244;6.982;2022-12-10T07:33:02;122.90;;;35.45;;
18520;SDS011;9390;51.244;6.982;2022-12-10T07:35:34;112.18;;;36.22;;
18520;SDS011;9390;51.244;6.982;2022-12-10T07:38:09;124.38;;;36.03;;
18520;SDS011;9390;51.244;6.982;2022-12-10T07:40:40;129.23;;;36.58;;
18520;SDS011;9390;51.244;6.982;2022-12-10T07:43:12;125.60;;;37.35;;
18520;SDS011;9390;51.244;6.982;2022-12-10T07:45:43;130.27;;;38.03;;
18520;SDS011;9390;51.244;6.982;2022-12-10T07:48:15;140.02;;;37.70;;
18520;SDS011;9390;51.244;6.982;2022-12-10T07:50:48;126.50;;;37.65;;
18520;SDS011;9390;51.244;6.982;2022-12-10T07:53:26;140.73;;;39.00;;
18520;SDS011;9390;51.244;6.982;2022-12-10T07:55:58;139.77;;;40.15;;
18520;SDS011;9390;51.244;6.982;2022-12-10T07:58:30;128.73;;;37.55;;
18520;SDS011;9390;51.244;6.982;2022-12-10T08:01:05;127.85;;;37.05;;
18520;SDS011;9390;51.244;6.982;2022-12-10T08:03:37;139.75;;;38.65;;
18520;SDS011;9390;51.244;6.982;2022-12-10T08:06:11;134.75;;;38.90;;
18520;SDS011;9390;51.244;6.982;2022-12-10T08:08:44;128.27;;;38.15;;
18520;SDS011;9390;51.244;6.982;2022-12-10T08:11:16;147.55;;;41.33;;
18520;SDS011;9390;51.244;6.982;2022-12-10T08:13:49;141.63;;;40.97;;
18520;SDS011;9390;51.244;6.982;2022-12-10T08:16:22;130.80;;;38.90;;
18520;SDS011;9390;51.244;6.982;2022-12-10T08:18:55;125.82;;;38.92;;
18520;SDS011;9390;51.244;6.982;2022-12-10T08:21:30;123.95;;;39.17;;
18520;SDS011;9390;51.244;6.982;2022-12-10T08:24:02;136.50;;;38.78;;
18520;SDS011;9390;51.244;6.982;2022-12-10T08:26:34;129.85;;;39.08;;
18520;SDS011;9390;51.244;6.982;2022-12-10T08:29:06;132.15;;;39.72;;
18520;SDS011;9390;51.244;6.982;2022-12-10T08:31:38;126.95;;;38.50;;
18520;SDS011;9390;51.244;6.982;2022-12-10T08:34:10;122.47;;;39.45;;
18520;SDS011;9390;51.244;6.982;2022-12-10T08:36:44;132.93;;;38.78;;
18520;SDS011;9390;51.244;6.982;2022-12-10T08:39:16;134.13;;;39.20;;
18520;SDS011;9390;51.244;6.982;2022-12-10T08:41:48;135.40;;;41.20;;
18520;SDS011;9390;51.244;6.982;2022-12-10T08:44:19;149.45;;;43.97;;
18520;SDS011;9390;51.244;6.982;2022-12-10T08:46:51;127.70;;;39.20;;
18520;SDS011;9390;51.244;6.982;2022-12-10T08:49:23;132.52;;;38.78;;
18520;SDS011;9390;51.244;6.982;2022-12-10T08:51:55;133.05;;;39.28;;
18520;SDS011;9390;51.244;6.982;2022-12-10T08:54:27;119.75;;;38.38;;
18520;SDS011;9390;51.244;6.982;2022-12-10T08:56:59;138.70;;;40.80;;
18520;SDS011;9390;51.244;6.982;2022-12-10T08:59:31;134.68;;;38.90;;
18520;SDS011;9390;51.244;6.982;2022-12-10T09:02:03;123.40;;;38.20;;
18520;SDS011;9390;51.244;6.982;2022-12-10T09:04:35;119.35;;;40.00;;
18520;SDS011;9390;51.244;6.982;2022-12-10T09:07:07;121.93;;;36.60;;
18520;SDS011;9390;51.244;6.982;2022-12-10T09:09:39;127.35;;;39.55;;
18520;SDS011;9390;51.244;6.982;2022-12-10T09:12:11;121.00;;;38.08;;
18520;SDS011;9390;51.244;6.982;2022-12-10T09:14:42;122.15;;;39.28;;
18520;SDS011;9390;51.244;6.982;2022-12-10T09:17:14;116.10;;;37.45;;
18520;SDS011;9390;51.244;6.982;2022-12-10T09:19:46;123.70;;;38.08;;
18520;SDS011;9390;51.244;6.982;2022-12-10T09:22:19;114.80;;;38.20;;
18520;SDS011;9390;51.244;6.982;2022-12-10T09:24:50;107.10;;;37.20;;
18520;SDS011;9390;51.244;6.982;2022-12-10T09:27:22;129.10;;;39.25;;
18520;SDS011;9390;51.244;6.982;2022-12-10T09:29:54;133.55;;;38.30;;
18520;SDS011;9390;51.244;6.982;2022-12-10T09:32:25;129.68;;;40.08;;
18520;SDS011;9390;51.244;6.982;2022-12-10T09:34:57;117.13;;;38.10;;
18520;SDS011;9390;51.244;6.982;2022-12-10T09:37:30;123.88;;;41.28;;
18520;SDS011;9390;51.244;6.982;2022-12-10T09:40:02;131.75;;;41.78;;
18520;SDS011;9390;51.244;6.982;2022-12-10T09:42:36;124.35;;;38.95;;
18520;SDS011;9390;51.244;6.982;2022-12-10T09:45:18;125.57;;;39.50;;
18520;SDS011;9390;51.244;6.982;2022-12-10T09:47:54;120.00;;;39.33;;
18520;SDS011;9390;51.244;6.982;2022-12-10T09:50:30;124.22;;;39.80;;
18520;SDS011;9390;51.244;6.982;2022-12-10T09:53:07;126.85;;;40.25;;
18520;SDS011;9390;51.244;6.982;2022-12-10T09:55:42;115.55;;;38.45;;
18520;SDS011;9390;51.244;6.982;2022-12-10T09:58:17;124.57;;;38.45;;
18520;SDS011;9390;51.244;6.982;2022-12-10T10:00:51;116.55;;;38.00;;
18520;SDS011;9390;51.244;6.982;2022-12-10T10:03:27;109.90;;;37.03;;
18520;SDS011;9390;51.244;6.982;2022-12-10T10:06:02;107.95;;;34.83;;
18520;SDS011;9390;51.244;6.982;2022-12-10T10:08:38;99.25;;;37.05;;
18520;SDS011;9390;51.244;6.982;2022-12-10T10:11:14;99.72;;;33.28;;
18520;SDS011;9390;51.244;6.982;2022-12-10T10:13:49;100.75;;;34.95;;
18520;SDS011;9390;51.244;6.982;2022-12-10T10:16:23;102.95;;;33.42;;
18520;SDS011;9390;51.244;6.982;2022-12-10T10:18:56;96.10;;;34.03;;
18520;SDS011;9390;51.244;6.982;2022-12-10T10:21:30;110.97;;;36.58;;
18520;SDS011;9390;51.244;6.982;2022-12-10T10:24:06;105.65;;;34.50;;
18520;SDS011;9390;51.244;6.982;2022-12-10T10:26:39;116.78;;;37.60;;
18520;SDS011;9390;51.244;6.982;2022-12-10T10:29:14;108.85;;;36.30;;
18520;SDS011;9390;51.244;6.982;2022-12-10T10:31:57;105.07;;;36.63;;
18520;SDS011;9390;51.244;6.982;2022-12-10T10:34:52;106.40;;;36.55;;
18520;SDS011;9390;51.244;6.982;2022-12-10T10:37:25;107.20;;;33.55;;
18520;SDS011;9390;51.244;6.982;2022-12-10T10:39:58;88.93;;;32.22;;
18520;SDS011;9390;51.244;6.982;2022-12-10T10:42:34;98.38;;;33.88;;
18520;SDS011;9390;51.244;6.982;2022-12-10T10:45:29;90.80;;;31.42;;
18520;SDS011;9390;51.244;6.982;2022-12-10T10:48:15;102.15;;;33.45;;
18520;SDS011;9390;51.244;6.982;2022-12-10T10:50:48;82.15;;;29.58;;
18520;SDS011;9390;51.244;6.982;2022-12-10T10:53:31;93.20;;;30.38;;
18520;SDS011;9390;51.244;6.982;2022-12-10T10:56:05;86.75;;;31.60;;
18520;SDS011;9390;51.244;6.982;2022-12-10T10:58:44;90.00;;;30.60;;
18520;SDS011;9390;51.244;6.982;2022-12-10T11:01:25;99.10;;;31.23;;
18520;SDS011;9390;51.244;6.982;2022-12-10T11:03:59;95.75;;;34.05;;
18520;SDS011;9390;51.244;6.982;2022-12-10T11:09:02;96.65;;;31.70;;
18520;SDS011;9390;51.244;6.982;2022-12-10T11:11:36;99.38;;;31.25;;
18520;SDS011;9390;51.244;6.982;2022-12-10T11:14:15;95.07;;;32.80;;
18520;SDS011;9390;51.244;6.982;2022-12-10T11:16:59;93.18;;;33.28;;
18520;SDS011;9390;51.244;6.982;2022-12-10T11:19:33;95.88;;;31.88;;
18520;SDS011;9390;51.244;6.982;2022-12-10T11:22:17;91.22;;;29.85;;
18520;SDS011;9390;51.244;6.982;2022-12-10T11:24:51;78.10;;;28.13;;
18520;SDS011;9390;51.244;6.982;2022-12-10T11:27:25;79.85;;;29.42;;
18520;SDS011;9390;51.244;6.982;2022-12-10T11:30:04;75.80;;;28.25;;
18520;SDS011;9390;51.244;6.982;2022-12-10T11:32:43;91.07;;;30.83;;
18520;SDS011;9390;51.244;6.982;2022-12-10T11:35:23;87.55;;;29.98;;
18520;SDS011;9390;51.244;6.982;2022-12-10T11:38:06;72.55;;;28.30;;
18520;SDS011;9390;51.244;6.982;2022-12-10T11:40:45;83.53;;;29.77;;
18520;SDS011;9390;51.244;6.982;2022-12-10T11:43:23;73.22;;;27.23;;
18520;SDS011;9390;51.244;6.982;2022-12-10T11:46:21;79.90;;;27.45;;
18520;SDS011;9390;51.244;6.982;2022-12-10T11:49:05;76.35;;;27.92;;
18520;SDS011;9390;51.244;6.982;2022-12-10T11:51:46;71.30;;;25.50;;
18520;SDS011;9390;51.244;6.982;2022-12-10T11:54:26;69.10;;;26.52;;
18520;SDS011;9390;51.244;6.982;2022-12-10T11:57:06;85.25;;;27.80;;
18520;SDS011;9390;51.244;6.982;2022-12-10T11:59:41;67.90;;;24.83;;
18520;SDS011;9390;51.244;6.982;2022-12-10T12:02:22;78.85;;;26.10;;
18520;SDS011;9390;51.244;6.982;2022-12-10T12:05:13;58.30;;;23.02;;
18520;SDS011;9390;51.244;6.982;2022-12-10T12:07:52;63.90;;;24.52;;
18520;SDS011;9390;51.244;6.982;2022-12-10T12:10:39;55.17;;;23.67;;
18520;SDS011;9390;51.244;6.982;2022-12-10T12:13:16;65.15;;;26.98;;
18520;SDS011;9390;51.244;6.982;2022-12-10T12:15:51;64.82;;;24.15;;
18520;SDS011;9390;51.244;6.982;2022-12-10T12:18:26;66.93;;;24.40;;
18520;SDS011;9390;51.244;6.982;2022-12-10T12:21:01;71.15;;;25.10;;
18520;SDS011;9390;51.244;6.982;2022-12-10T12:23:37;76.32;;;28.27;;
18520;SDS011;9390;51.244;6.982;2022-12-10T12:26:15;75.50;;;28.10;;
18520;SDS011;9390;51.244;6.982;2022-12-10T12:28:51;75.63;;;28.23;;
18520;SDS011;9390;51.244;6.982;2022-12-10T12:31:25;75.85;;;26.92;;
18520;SDS011;9390;51.244;6.982;2022-12-10T12:34:03;67.38;;;24.58;;
18520;SDS011;9390;51.244;6.982;2022-12-10T12:36:37;73.63;;;23.98;;
18520;SDS011;9390;51.244;6.982;2022-12-10T12:39:12;73.25;;;26.77;;
18520;SDS011;9390;51.244;6.982;2022-12-10T12:41:47;74.05;;;26.63;;
18520;SDS011;9390;51.244;6.982;2022-12-10T12:44:22;80.85;;;27.67;;
18520;SDS011;9390;51.244;6.982;2022-12-10T12:47:02;86.75;;;29.30;;
18520;SDS011;9390;51.244;6.982;2022-12-10T12:49:37;73.22;;;27.10;;
18520;SDS011;9390;51.244;6.982;2022-12-10T12:52:14;86.63;;;29.80;;
18520;SDS011;9390;51.244;6.982;2022-12-10T12:54:55;83.15;;;29.98;;
18520;SDS011;9390;51.244;6.982;2022-12-10T12:57:33;89.47;;;30.33;;
18520;SDS011;9390;51.244;6.982;2022-12-10T13:00:09;84.93;;;29.67;;
18520;SDS011;9390;51.244;6.982;2022-12-10T13:02:50;80.93;;;28.90;;
18520;SDS011;9390;51.244;6.982;2022-12-10T13:05:28;77.60;;;28.40;;
18520;SDS011;9390;51.244;6.982;2022-12-10T13:08:22;79.95;;;28.40;;
18520;SDS011;9390;51.244;6.982;2022-12-10T13:10:58;71.50;;;26.05;;
18520;SDS011;9390;51.244;6.982;2022-12-10T13:13:32;80.55;;;27.15;;
18520;SDS011;9390;51.244;6.982;2022-12-10T13:19:25;75.97;;;29.00;;
18520;SDS011;9390;51.244;6.982;2022-12-10T13:22:08;75.32;;;27.65;;
18520;SDS011;9390;51.244;6.982;2022-12-10T13:27:19;80.00;;;28.38;;
18520;SDS011;9390;51.244;6.982;2022-12-10T13:30:03;87.97;;;28.00;;
18520;SDS011;9390;51.244;6.982;2022-12-10T13:33:02;80.47;;;27.95;;
18520;SDS011;9390;51.244;6.982;2022-12-10T13:35:41;82.65;;;27.98;;
18520;SDS011;9390;51.244;6.982;2022-12-10T13:38:19;82.78;;;27.02;;
18520;SDS011;9390;51.244;6.982;2022-12-10T13:40:57;83.50;;;29.33;;
18520;SDS011;9390;51.244;6.982;2022-12-10T13:43:53;71.43;;;27.15;;
18520;SDS011;9390;51.244;6.982;2022-12-10T13:46:51;77.18;;;27.42;;
18520;SDS011;9390;51.244;6.982;2022-12-10T13:49:27;74.35;;;28.25;;
18520;SDS011;9390;51.244;6.982;2022-12-10T13:52:00;77.18;;;26.65;;
18520;SDS011;9390;51.244;6.982;2022-12-10T13:54:44;79.07;;;28.05;;
18520;SDS011;9390;51.244;6.982;2022-12-10T13:57:30;81.85;;;28.02;;
18520;SDS011;9390;51.244;6.982;2022-12-10T14:00:09;76.95;;;27.75;;
18520;SDS011;9390;51.244;6.982;2022-12-10T14:02:47;80.97;;;26.58;;
18520;SDS011;9390;51.244;6.982;2022-12-10T14:05:41;70.90;;;26.80;;
18520;SDS011;9390;51.244;6.982;2022-12-10T14:08:16;74.90;;;27.08;;
18520;SDS011;9390;51.244;6.982;2022-12-10T14:10:49;80.65;;;29.85;;
18520;SDS011;9390;51.244;6.982;2022-12-10T14:13:21;75.10;;;26.75;;
18520;SDS011;9390;51.244;6.982;2022-12-10T14:15:57;83.18;;;27.33;;
18520;SDS011;9390;51.244;6.982;2022-12-10T14:18:29;73.93;;;25.42;;
18520;SDS011;9390;51.244;6.982;2022-12-10T14:21:02;83.63;;;27.95;;
18520;SDS011;9390;51.244;6.982;2022-12-10T14:23:36;74.72;;;27.48;;
18520;SDS011;9390;51.244;6.982;2022-12-10T14:26:15;73.25;;;26.52;;
18520;SDS011;9390;51.244;6.982;2022-12-10T14:31:25;78.75;;;26.10;;
18520;SDS011;9390;51.244;6.982;2022-12-10T14:33:59;71.70;;;26.45;;
18520;SDS011;9390;51.244;6.982;2022-12-10T14:36:33;77.80;;;27.60;;
18520;SDS011;9390;51.244;6.982;2022-12-10T14:39:10;79.10;;;27.15;;
18520;SDS011;9390;51.244;6.982;2022-12-10T14:41:43;77.07;;;29.45;;
18520;SDS011;9390;51.244;6.982;2022-12-10T14:44:15;86.57;;;28.58;;
18520;SDS011;9390;51.244;6.982;2022-12-10T14:46:49;97.85;;;31.20;;
18520;SDS011;9390;51.244;6.982;2022-12-10T14:49:21;97.47;;;33.60;;
18520;SDS011;9390;51.244;6.982;2022-12-10T14:51:55;85.60;;;31.20;;
18520;SDS011;9390;51.244;6.982;2022-12-10T14:54:27;92.97;;;30.40;;
18520;SDS011;9390;51.244;6.982;2022-12-10T14:57:03;92.63;;;30.92;;
18520;SDS011;9390;51.244;6.982;2022-12-10T14:59:36;87.68;;;29.30;;
18520;SDS011;9390;51.244;6.982;2022-12-10T15:02:14;94.78;;;29.38;;
18520;SDS011;9390;51.244;6.982;2022-12-10T15:04:48;98.50;;;30.83;;
18520;SDS011;9390;51.244;6.982;2022-12-10T15:07:21;94.55;;;32.47;;
18520;SDS011;9390;51.244;6.982;2022-12-10T15:09:54;104.15;;;32.58;;
18520;SDS011;9390;51.244;6.982;2022-12-10T15:12:28;111.28;;;35.72;;
18520;SDS011;9390;51.244;6.982;2022-12-10T15:15:04;103.93;;;33.72;;
18520;SDS011;9390;51.244;6.982;2022-12-10T15:17:40;110.47;;;35.78;;
18520;SDS011;9390;51.244;6.982;2022-12-10T15:20:20;101.57;;;36.45;;
18520;SDS011;9390;51.244;6.982;2022-12-10T15:22:53;110.18;;;36.17;;
18520;SDS011;9390;51.244;6.982;2022-12-10T15:25:26;105.60;;;37.25;;
18520;SDS011;9390;51.244;6.982;2022-12-10T15:28:00;109.18;;;35.42;;
18520;SDS011;9390;51.244;6.982;2022-12-10T15:30:33;91.63;;;30.52;;
18520;SDS011;9390;51.244;6.982;2022-12-10T15:33:21;121.68;;;35.08;;
18520;SDS011;9390;51.244;6.982;2022-12-10T15:35:56;113.20;;;35.08;;
18520;SDS011;9390;51.244;6.982;2022-12-10T15:38:29;121.43;;;35.25;;